Portada
METAR-TAF:

METAR-TAF

Aeroports :

Bridgetown, Barbados

latitud: 13-04N, longitud: 059-29W, altitud: 50 m

Observació

L'informe es va fer fa 19 minuts, a les 20:00 UTC
Vent 8 kt del Est
Temperatura 29°C
Humitat 66%
Pressió 1009 hPa
Visibilitat 10 km o més
Escasses núvols a una alçada de 1600 ft

METAR: TBPB 222000Z 09008KT 9999 FEW016 29/22 Q1009 NOSIG

Hora: 16:19 (20:19 UTC)

Pronòstic

L'informe es va fer fa 3 hores i 19 minuts, a les 17:00 UTC
Pronòstic vàlid del 22 a les 18 UTC al 23 a les 18 UTC
Vent 8 kt del Est/Sud-Est
Visibilitat 10 km o més
Núvols disperses a una alçada de 1800 ft

TAF: TBPB 221700Z 2218/2318 11008KT 9999 SCT018

Observacions i pronòstics meteorològics de més de 4000 aeroports (METAR i TAF).

Les estacions disponibles són els punts grocs i vermells al mapa.

Posi el ratolí al punt desitjat per veure el nom de l'estació.

Feu clic per veure les observacions i els pronòstics meteorològics.

Per canviar el mapa: feu clic els botons verds amb una creu de color negre per apropar; al botó verd amb un guió per allunyar la imatge; o en les fletxes verdes per a mapes adjacents.


METAR-TAF: